sensor_id;sensor_type;location;lat;lon;timestamp;pressure;altitude;pressure_sealevel;temperature;humidity
8049;BME280;20935;42.660;23.342;2023-02-13T00:01:22;96472.03;;;0.58;100.00
8049;BME280;20935;42.660;23.342;2023-02-13T00:04:07;96466.53;;;0.54;100.00
8049;BME280;20935;42.660;23.342;2023-02-13T00:06:53;96476.16;;;0.64;100.00
8049;BME280;20935;42.660;23.342;2023-02-13T00:09:38;96479.22;;;0.52;100.00
8049;BME280;20935;42.660;23.342;2023-02-13T00:12:24;96473.28;;;0.60;100.00
8049;BME280;20935;42.660;23.342;2023-02-13T00:15:11;96473.88;;;0.57;100.00
8049;BME280;20935;42.660;23.342;2023-02-13T00:17:56;96468.53;;;0.62;100.00
8049;BME280;20935;42.660;23.342;2023-02-13T00:20:42;96467.75;;;0.62;100.00
8049;BME280;20935;42.660;23.342;2023-02-13T00:23:29;96484.72;;;0.56;100.00
8049;BME280;20935;42.660;23.342;2023-02-13T00:26:19;96480.53;;;0.87;100.00
8049;BME280;20935;42.660;23.342;2023-02-13T00:29:04;96479.09;;;0.76;100.00
8049;BME280;20935;42.660;23.342;2023-02-13T00:31:51;96480.09;;;0.80;100.00
8049;BME280;20935;42.660;23.342;2023-02-13T00:34:39;96484.78;;;0.51;100.00
8049;BME280;20935;42.660;23.342;2023-02-13T00:37:25;96479.66;;;0.59;100.00
8049;BME280;20935;42.660;23.342;2023-02-13T00:40:11;96485.28;;;0.71;100.00
8049;BME280;20935;42.660;23.342;2023-02-13T00:42:57;96485.09;;;0.81;100.00
8049;BME280;20935;42.660;23.342;2023-02-13T00:45:42;96481.75;;;0.76;100.00
8049;BME280;20935;42.660;23.342;2023-02-13T00:48:31;96487.56;;;0.59;100.00
8049;BME280;20935;42.660;23.342;2023-02-13T00:51:16;96491.16;;;0.82;100.00
8049;BME280;20935;42.660;23.342;2023-02-13T00:54:02;96490.44;;;0.95;100.00
8049;BME280;20935;42.660;23.342;2023-02-13T00:56:47;96490.56;;;0.85;100.00
8049;BME280;20935;42.660;23.342;2023-02-13T00:59:33;96494.06;;;0.80;100.00
8049;BME280;20935;42.660;23.342;2023-02-13T01:02:18;96500.00;;;0.72;100.00
8049;BME280;20935;42.660;23.342;2023-02-13T01:05:06;96501.94;;;0.67;100.00
8049;BME280;20935;42.660;23.342;2023-02-13T01:07:51;96492.19;;;0.67;100.00
8049;BME280;20935;42.660;23.342;2023-02-13T01:10:37;96500.84;;;0.68;100.00
8049;BME280;20935;42.660;23.342;2023-02-13T01:13:23;96491.97;;;0.64;100.00
8049;BME280;20935;42.660;23.342;2023-02-13T01:16:08;96493.78;;;0.82;100.00
8049;BME280;20935;42.660;23.342;2023-02-13T01:18:53;96494.13;;;0.94;100.00
8049;BME280;20935;42.660;23.342;2023-02-13T01:21:41;96494.75;;;1.05;100.00
8049;BME280;20935;42.660;23.342;2023-02-13T01:24:27;96497.41;;;0.86;100.00
8049;BME280;20935;42.660;23.342;2023-02-13T01:27:12;96497.38;;;1.05;100.00
8049;BME280;20935;42.660;23.342;2023-02-13T01:29:58;96498.69;;;0.88;100.00
8049;BME280;20935;42.660;23.342;2023-02-13T01:32:45;96499.34;;;1.13;100.00
8049;BME280;20935;42.660;23.342;2023-02-13T01:35:30;96492.03;;;1.10;100.00
8049;BME280;20935;42.660;23.342;2023-02-13T01:38:17;96502.63;;;1.23;100.00
8049;BME280;20935;42.660;23.342;2023-02-13T01:41:03;96508.47;;;1.20;100.00
8049;BME280;20935;42.660;23.342;2023-02-13T01:43:50;96510.63;;;1.18;100.00
8049;BME280;20935;42.660;23.342;2023-02-13T01:46:39;96504.56;;;1.18;100.00
8049;BME280;20935;42.660;23.342;2023-02-13T01:49:26;96503.78;;;1.17;100.00
8049;BME280;20935;42.660;23.342;2023-02-13T01:52:12;96505.81;;;1.07;100.00
8049;BME280;20935;42.660;23.342;2023-02-13T01:54:59;96516.50;;;1.29;100.00
8049;BME280;20935;42.660;23.342;2023-02-13T01:57:48;96516.53;;;1.42;100.00
8049;BME280;20935;42.660;23.342;2023-02-13T02:00:34;96515.94;;;1.46;100.00
8049;BME280;20935;42.660;23.342;2023-02-13T02:03:26;96523.44;;;1.25;100.00
8049;BME280;20935;42.660;23.342;2023-02-13T02:06:17;96522.31;;;1.12;100.00
8049;BME280;20935;42.660;23.342;2023-02-13T02:09:09;96515.97;;;1.13;100.00
8049;BME280;20935;42.660;23.342;2023-02-13T02:11:59;96511.72;;;1.31;100.00
8049;BME280;20935;42.660;23.342;2023-02-13T02:14:46;96505.16;;;1.28;100.00
8049;BME280;20935;42.660;23.342;2023-02-13T02:17:33;96503.97;;;1.21;100.00
8049;BME280;20935;42.660;23.342;2023-02-13T02:20:27;96507.78;;;1.28;100.00
8049;BME280;20935;42.660;23.342;2023-02-13T02:23:34;96511.25;;;1.42;100.00
8049;BME280;20935;42.660;23.342;2023-02-13T02:27:06;96507.13;;;1.36;100.00
8049;BME280;20935;42.660;23.342;2023-02-13T02:33:25;96500.47;;;1.25;100.00
8049;BME280;20935;42.660;23.342;2023-02-13T02:36:24;96508.47;;;1.20;100.00
8049;BME280;20935;42.660;23.342;2023-02-13T02:39:19;96512.66;;;1.21;100.00
8049;BME280;20935;42.660;23.342;2023-02-13T02:42:17;96517.22;;;1.34;100.00
8049;BME280;20935;42.660;23.342;2023-02-13T02:45:08;96527.44;;;1.36;100.00
8049;BME280;20935;42.660;23.342;2023-02-13T02:48:01;96527.56;;;1.31;100.00
8049;BME280;20935;42.660;23.342;2023-02-13T02:51:12;96531.38;;;1.38;100.00
8049;BME280;20935;42.660;23.342;2023-02-13T02:54:05;96544.13;;;1.64;100.00
8049;BME280;20935;42.660;23.342;2023-02-13T02:57:15;96538.69;;;1.28;100.00
8049;BME280;20935;42.660;23.342;2023-02-13T03:00:04;96537.84;;;0.81;100.00
8049;BME280;20935;42.660;23.342;2023-02-13T03:03:12;96539.97;;;0.98;100.00
8049;BME280;20935;42.660;23.342;2023-02-13T03:06:21;96537.59;;;0.97;100.00
8049;BME280;20935;42.660;23.342;2023-02-13T03:09:14;96534.81;;;1.07;100.00
8049;BME280;20935;42.660;23.342;2023-02-13T03:12:20;96526.69;;;1.03;100.00
8049;BME280;20935;42.660;23.342;2023-02-13T03:15:26;96530.72;;;1.14;100.00
8049;BME280;20935;42.660;23.342;2023-02-13T03:18:13;96534.81;;;0.88;100.00
8049;BME280;20935;42.660;23.342;2023-02-13T03:21:21;96536.63;;;1.25;100.00
8049;BME280;20935;42.660;23.342;2023-02-13T03:24:34;96537.19;;;1.22;100.00
8049;BME280;20935;42.660;23.342;2023-02-13T03:27:31;96532.78;;;1.17;100.00
8049;BME280;20935;42.660;23.342;2023-02-13T03:30:46;96532.34;;;1.29;100.00
8049;BME280;20935;42.660;23.342;2023-02-13T03:33:52;96534.69;;;1.30;100.00
8049;BME280;20935;42.660;23.342;2023-02-13T03:36:45;96539.13;;;1.16;100.00
8049;BME280;20935;42.660;23.342;2023-02-13T03:39:57;96544.47;;;1.30;100.00
8049;BME280;20935;42.660;23.342;2023-02-13T03:42:49;96538.59;;;1.33;100.00
8049;BME280;20935;42.660;23.342;2023-02-13T03:45:38;96544.31;;;1.54;100.00
8049;BME280;20935;42.660;23.342;2023-02-13T03:48:39;96542.31;;;1.32;100.00
8049;BME280;20935;42.660;23.342;2023-02-13T03:51:49;96542.28;;;1.18;100.00
8049;BME280;20935;42.660;23.342;2023-02-13T03:54:39;96544.78;;;1.42;100.00
8049;BME280;20935;42.660;23.342;2023-02-13T03:57:46;96539.38;;;1.33;100.00
8049;BME280;20935;42.660;23.342;2023-02-13T04:00:53;96532.44;;;1.37;100.00
8049;BME280;20935;42.660;23.342;2023-02-13T04:03:43;96527.44;;;1.22;100.00
8049;BME280;20935;42.660;23.342;2023-02-13T04:06:33;96534.28;;;1.23;100.00
8049;BME280;20935;42.660;23.342;2023-02-13T04:09:22;96536.63;;;1.25;100.00
8049;BME280;20935;42.660;23.342;2023-02-13T04:12:13;96533.97;;;0.92;100.00
8049;BME280;20935;42.660;23.342;2023-02-13T04:15:05;96537.00;;;1.18;100.00
8049;BME280;20935;42.660;23.342;2023-02-13T04:17:54;96536.31;;;0.94;100.00
8049;BME280;20935;42.660;23.342;2023-02-13T04:20:44;96543.94;;;1.14;100.00
8049;BME280;20935;42.660;23.342;2023-02-13T04:23:30;96529.56;;;1.20;100.00
8049;BME280;20935;42.660;23.342;2023-02-13T04:26:18;96536.47;;;1.03;100.00
8049;BME280;20935;42.660;23.342;2023-02-13T04:29:05;96542.97;;;1.24;100.00
8049;BME280;20935;42.660;23.342;2023-02-13T04:31:50;96550.84;;;1.10;100.00
8049;BME280;20935;42.660;23.342;2023-02-13T04:34:36;96549.69;;;1.16;100.00
8049;BME280;20935;42.660;23.342;2023-02-13T04:37:21;96544.06;;;1.04;100.00
8049;BME280;20935;42.660;23.342;2023-02-13T04:40:08;96536.22;;;1.31;100.00
8049;BME280;20935;42.660;23.342;2023-02-13T04:42:58;96538.97;;;1.26;100.00
8049;BME280;20935;42.660;23.342;2023-02-13T04:45:46;96539.72;;;1.13;100.00
8049;BME280;20935;42.660;23.342;2023-02-13T04:48:32;96538.00;;;1.22;100.00
8049;BME280;20935;42.660;23.342;2023-02-13T04:51:17;96543.00;;;1.37;100.00
8049;BME280;20935;42.660;23.342;2023-02-13T04:54:03;96543.34;;;1.50;100.00
8049;BME280;20935;42.660;23.342;2023-02-13T04:56:48;96551.25;;;1.50;100.00
8049;BME280;20935;42.660;23.342;2023-02-13T04:59:38;96545.97;;;1.63;100.00
8049;BME280;20935;42.660;23.342;2023-02-13T05:02:23;96559.91;;;1.36;100.00
8049;BME280;20935;42.660;23.342;2023-02-13T05:05:08;96562.81;;;1.21;100.00
8049;BME280;20935;42.660;23.342;2023-02-13T05:07:54;96558.25;;;1.27;100.00
8049;BME280;20935;42.660;23.342;2023-02-13T05:10:40;96564.25;;;0.58;100.00
8049;BME280;20935;42.660;23.342;2023-02-13T05:13:25;96578.66;;;0.84;100.00
8049;BME280;20935;42.660;23.342;2023-02-13T05:16:12;96569.59;;;1.09;100.00
8049;BME280;20935;42.660;23.342;2023-02-13T05:19:01;96569.22;;;0.40;100.00
8049;BME280;20935;42.660;23.342;2023-02-13T05:21:46;96581.72;;;0.72;100.00
8049;BME280;20935;42.660;23.342;2023-02-13T05:24:49;96574.47;;;0.83;100.00
8049;BME280;20935;42.660;23.342;2023-02-13T05:27:35;96582.44;;;0.59;100.00
8049;BME280;20935;42.660;23.342;2023-02-13T05:30:20;96578.59;;;0.52;100.00
8049;BME280;20935;42.660;23.342;2023-02-13T05:33:07;96580.28;;;0.42;100.00
8049;BME280;20935;42.660;23.342;2023-02-13T05:35:53;96584.09;;;0.31;100.00
8049;BME280;20935;42.660;23.342;2023-02-13T05:38:38;96580.97;;;0.48;100.00
8049;BME280;20935;42.660;23.342;2023-02-13T05:41:25;96580.47;;;0.27;100.00
8049;BME280;20935;42.660;23.342;2023-02-13T05:44:11;96579.91;;;0.30;100.00
8049;BME280;20935;42.660;23.342;2023-02-13T05:46:56;96584.97;;;0.45;100.00
8049;BME280;20935;42.660;23.342;2023-02-13T05:49:46;96590.66;;;0.34;100.00
8049;BME280;20935;42.660;23.342;2023-02-13T05:52:33;96591.94;;;0.36;100.00
8049;BME280;20935;42.660;23.342;2023-02-13T05:55:18;96593.91;;;0.26;100.00
8049;BME280;20935;42.660;23.342;2023-02-13T05:58:03;96593.75;;;0.17;100.00
8049;BME280;20935;42.660;23.342;2023-02-13T06:00:54;96597.41;;;0.40;100.00
8049;BME280;20935;42.660;23.342;2023-02-13T06:03:39;96590.06;;;0.18;100.00
8049;BME280;20935;42.660;23.342;2023-02-13T06:06:29;96597.59;;;0.01;100.00
8049;BME280;20935;42.660;23.342;2023-02-13T06:09:14;96606.13;;;0.17;100.00
8049;BME280;20935;42.660;23.342;2023-02-13T06:12:00;96601.59;;;0.22;100.00
8049;BME280;20935;42.660;23.342;2023-02-13T06:14:45;96603.31;;;0.08;100.00
8049;BME280;20935;42.660;23.342;2023-02-13T06:17:31;96609.59;;;0.36;100.00
8049;BME280;20935;42.660;23.342;2023-02-13T06:20:19;96607.34;;;0.48;100.00
8049;BME280;20935;42.660;23.342;2023-02-13T06:23:06;96601.41;;;0.37;100.00
8049;BME280;20935;42.660;23.342;2023-02-13T06:25:51;96613.00;;;0.36;100.00
8049;BME280;20935;42.660;23.342;2023-02-13T06:28:37;96608.94;;;0.25;100.00
8049;BME280;20935;42.660;23.342;2023-02-13T06:31:22;96614.50;;;0.66;100.00
8049;BME280;20935;42.660;23.342;2023-02-13T06:34:08;96618.13;;;0.70;100.00
8049;BME280;20935;42.660;23.342;2023-02-13T06:36:53;96619.84;;;0.37;100.00
8049;BME280;20935;42.660;23.342;2023-02-13T06:39:40;96611.16;;;0.37;100.00
8049;BME280;20935;42.660;23.342;2023-02-13T06:42:25;96621.06;;;0.45;100.00
8049;BME280;20935;42.660;23.342;2023-02-13T06:45:12;96623.34;;;0.94;100.00
8049;BME280;20935;42.660;23.342;2023-02-13T06:47:57;96623.28;;;0.99;100.00
8049;BME280;20935;42.660;23.342;2023-02-13T06:50:43;96621.72;;;0.98;100.00
8049;BME280;20935;42.660;23.342;2023-02-13T06:53:28;96630.03;;;1.24;100.00
8049;BME280;20935;42.660;23.342;2023-02-13T06:56:16;96626.06;;;1.26;100.00
8049;BME280;20935;42.660;23.342;2023-02-13T06:59:01;96626.69;;;1.18;100.00
8049;BME280;20935;42.660;23.342;2023-02-13T07:01:46;96624.44;;;1.44;100.00
8049;BME280;20935;42.660;23.342;2023-02-13T07:04:32;96622.31;;;1.46;100.00
8049;BME280;20935;42.660;23.342;2023-02-13T07:07:17;96618.19;;;1.72;100.00
8049;BME280;20935;42.660;23.342;2023-02-13T07:10:04;96612.97;;;2.13;100.00
8049;BME280;20935;42.660;23.342;2023-02-13T07:12:52;96617.97;;;2.42;100.00
8049;BME280;20935;42.660;23.342;2023-02-13T07:15:37;96617.44;;;1.99;100.00
8049;BME280;20935;42.660;23.342;2023-02-13T07:18:22;96623.59;;;1.81;100.00
8049;BME280;20935;42.660;23.342;2023-02-13T07:21:08;96625.59;;;2.16;100.00
8049;BME280;20935;42.660;23.342;2023-02-13T07:23:53;96620.22;;;2.21;100.00
8049;BME280;20935;42.660;23.342;2023-02-13T07:26:38;96626.13;;;1.86;100.00
8049;BME280;20935;42.660;23.342;2023-02-13T07:29:25;96623.69;;;1.89;100.00
8049;BME280;20935;42.660;23.342;2023-02-13T07:32:11;96628.13;;;2.35;100.00
8049;BME280;20935;42.660;23.342;2023-02-13T07:34:56;96631.38;;;2.32;100.00
8049;BME280;20935;42.660;23.342;2023-02-13T07:37:42;96633.16;;;2.50;100.00
8049;BME280;20935;42.660;23.342;2023-02-13T07:40:27;96634.00;;;2.73;100.00
8049;BME280;20935;42.660;23.342;2023-02-13T07:43:13;96634.19;;;2.63;100.00
8049;BME280;20935;42.660;23.342;2023-02-13T07:46:01;96632.13;;;3.23;100.00
8049;BME280;20935;42.660;23.342;2023-02-13T07:48:46;96627.84;;;2.64;100.00
8049;BME280;20935;42.660;23.342;2023-02-13T07:51:32;96628.13;;;2.08;100.00
8049;BME280;20935;42.660;23.342;2023-02-13T07:54:18;96630.56;;;2.86;100.00
8049;BME280;20935;42.660;23.342;2023-02-13T07:57:03;96632.69;;;2.98;100.00
8049;BME280;20935;42.660;23.342;2023-02-13T07:59:48;96624.56;;;2.94;100.00
8049;BME280;20935;42.660;23.342;2023-02-13T08:02:35;96637.91;;;2.75;100.00
8049;BME280;20935;42.660;23.342;2023-02-13T08:05:21;96635.44;;;2.79;100.00
8049;BME280;20935;42.660;23.342;2023-02-13T08:08:06;96627.16;;;2.58;100.00
8049;BME280;20935;42.660;23.342;2023-02-13T08:10:53;96622.16;;;2.70;100.00
8049;BME280;20935;42.660;23.342;2023-02-13T08:13:56;96628.28;;;2.93;100.00
8049;BME280;20935;42.660;23.342;2023-02-13T08:16:42;96624.81;;;2.70;100.00
8049;BME280;20935;42.660;23.342;2023-02-13T08:19:29;96625.56;;;2.71;100.00
8049;BME280;20935;42.660;23.342;2023-02-13T08:22:14;96627.84;;;2.64;100.00
8049;BME280;20935;42.660;23.342;2023-02-13T08:25:00;96625.59;;;3.07;100.00
8049;BME280;20935;42.660;23.342;2023-02-13T08:27:45;96627.41;;;2.84;100.00
8049;BME280;20935;42.660;23.342;2023-02-13T08:30:30;96624.66;;;2.89;100.00
8049;BME280;20935;42.660;23.342;2023-02-13T08:33:16;96629.91;;;3.03;100.00
8049;BME280;20935;42.660;23.342;2023-02-13T08:36:03;96627.34;;;3.11;100.00
8049;BME280;20935;42.660;23.342;2023-02-13T08:38:49;96628.28;;;3.29;100.00
8049;BME280;20935;42.660;23.342;2023-02-13T08:41:35;96625.66;;;2.79;100.00
8049;BME280;20935;42.660;23.342;2023-02-13T08:44:20;96625.38;;;2.81;100.00
8049;BME280;20935;42.660;23.342;2023-02-13T08:47:06;96632.41;;;2.86;100.00
8049;BME280;20935;42.660;23.342;2023-02-13T08:49:51;96632.53;;;3.16;100.00
8049;BME280;20935;42.660;23.342;2023-02-13T08:52:38;96626.84;;;2.73;100.00
8049;BME280;20935;42.660;23.342;2023-02-13T08:55:23;96628.47;;;2.83;100.00
8049;BME280;20935;42.660;23.342;2023-02-13T08:58:08;96638.09;;;3.51;100.00
8049;BME280;20935;42.660;23.342;2023-02-13T09:00:54;96633.06;;;3.27;100.00
8049;BME280;20935;42.660;23.342;2023-02-13T09:03:40;96640.31;;;3.35;100.00
8049;BME280;20935;42.660;23.342;2023-02-13T09:06:25;96635.56;;;3.46;100.00
8049;BME280;20935;42.660;23.342;2023-02-13T09:09:17;96636.00;;;3.61;100.00
8049;BME280;20935;42.660;23.342;2023-02-13T09:12:02;96637.09;;;3.38;99.02
8049;BME280;20935;42.660;23.342;2023-02-13T09:14:47;96633.03;;;3.63;98.81
8049;BME280;20935;42.660;23.342;2023-02-13T09:17:33;96631.00;;;3.60;99.72
8049;BME280;20935;42.660;23.342;2023-02-13T09:20:18;96626.84;;;3.90;96.74
8049;BME280;20935;42.660;23.342;2023-02-13T09:23:04;96629.69;;;3.49;99.05
8049;BME280;20935;42.660;23.342;2023-02-13T09:25:53;96626.00;;;3.58;97.61
8049;BME280;20935;42.660;23.342;2023-02-13T09:28:39;96626.50;;;3.91;96.19
8049;BME280;20935;42.660;23.342;2023-02-13T09:31:27;96625.34;;;3.53;96.61
8049;BME280;20935;42.660;23.342;2023-02-13T09:34:13;96621.25;;;3.69;95.92
8049;BME280;20935;42.660;23.342;2023-02-13T09:36:58;96620.25;;;3.87;97.70
8049;BME280;20935;42.660;23.342;2023-02-13T09:39:43;96619.88;;;4.42;92.67
8049;BME280;20935;42.660;23.342;2023-02-13T09:42:32;96614.47;;;4.16;92.27
8049;BME280;20935;42.660;23.342;2023-02-13T09:45:20;96615.72;;;4.10;93.76
8049;BME280;20935;42.660;23.342;2023-02-13T09:48:09;96614.47;;;4.64;91.78
8049;BME280;20935;42.660;23.342;2023-02-13T09:50:59;96603.53;;;4.57;90.52
8049;BME280;20935;42.660;23.342;2023-02-13T09:53:51;96597.13;;;4.49;92.01
8049;BME280;20935;42.660;23.342;2023-02-13T09:56:41;96605.34;;;5.13;87.07
8049;BME280;20935;42.660;23.342;2023-02-13T09:59:42;96596.06;;;4.67;87.72
8049;BME280;20935;42.660;23.342;2023-02-13T10:02:52;96597.38;;;5.47;85.10
8049;BME280;20935;42.660;23.342;2023-02-13T10:05:49;96592.06;;;4.96;86.90
8049;BME280;20935;42.660;23.342;2023-02-13T10:08:52;96586.75;;;5.04;88.40
8049;BME280;20935;42.660;23.342;2023-02-13T10:15:13;96581.72;;;4.86;89.90
8049;BME280;20935;42.660;23.342;2023-02-13T10:18:02;96574.88;;;4.85;87.03
8049;BME280;20935;42.660;23.342;2023-02-13T10:20:51;96569.72;;;5.48;85.29
8049;BME280;20935;42.660;23.342;2023-02-13T10:23:39;96566.13;;;4.76;87.93
8049;BME280;20935;42.660;23.342;2023-02-13T10:26:30;96563.16;;;5.11;84.21
8049;BME280;20935;42.660;23.342;2023-02-13T10:29:36;96550.03;;;5.49;82.74
8049;BME280;20935;42.660;23.342;2023-02-13T10:33:00;96544.88;;;5.44;82.34
8049;BME280;20935;42.660;23.342;2023-02-13T10:36:10;96542.16;;;5.61;81.77
8049;BME280;20935;42.660;23.342;2023-02-13T10:39:01;96531.63;;;5.91;79.48
8049;BME280;20935;42.660;23.342;2023-02-13T10:41:52;96536.75;;;5.32;82.68
8049;BME280;20935;42.660;23.342;2023-02-13T10:44:51;96531.50;;;5.70;81.61
8049;BME280;20935;42.660;23.342;2023-02-13T10:47:49;96517.38;;;5.32;82.35
8049;BME280;20935;42.660;23.342;2023-02-13T10:50:44;96513.13;;;5.48;80.00
8049;BME280;20935;42.660;23.342;2023-02-13T10:53:46;96521.56;;;5.50;81.44
8049;BME280;20935;42.660;23.342;2023-02-13T10:56:39;96511.66;;;5.76;79.58
8049;BME280;20935;42.660;23.342;2023-02-13T10:59:39;96516.47;;;5.91;79.37
8049;BME280;20935;42.660;23.342;2023-02-13T11:02:30;96507.31;;;5.63;80.00
8049;BME280;20935;42.660;23.342;2023-02-13T11:05:18;96497.75;;;5.62;80.12
8049;BME280;20935;42.660;23.342;2023-02-13T11:08:16;96498.63;;;5.83;79.18
8049;BME280;20935;42.660;23.342;2023-02-13T11:11:27;96493.22;;;5.62;79.18
8049;BME280;20935;42.660;23.342;2023-02-13T11:14:14;96491.09;;;5.85;78.33
8049;BME280;20935;42.660;23.342;2023-02-13T11:17:02;96483.31;;;5.80;76.87
8049;BME280;20935;42.660;23.342;2023-02-13T11:19:54;96488.78;;;5.84;76.38
8049;BME280;20935;42.660;23.342;2023-02-13T11:22:41;96489.66;;;5.50;78.39
8049;BME280;20935;42.660;23.342;2023-02-13T11:25:28;96464.06;;;5.92;77.45
8049;BME280;20935;42.660;23.342;2023-02-13T11:28:17;96468.09;;;6.27;74.92
8049;BME280;20935;42.660;23.342;2023-02-13T11:31:12;96461.94;;;6.35;73.45
8049;BME280;20935;42.660;23.342;2023-02-13T11:33:59;96447.72;;;6.02;74.28
8049;BME280;20935;42.660;23.342;2023-02-13T11:37:18;96451.47;;;6.30;73.19
8049;BME280;20935;42.660;23.342;2023-02-13T11:40:29;96448.25;;;6.66;71.92
8049;BME280;20935;42.660;23.342;2023-02-13T11:43:18;96440.84;;;6.92;68.89
8049;BME280;20935;42.660;23.342;2023-02-13T11:46:07;96437.84;;;7.39;66.17
8049;BME280;20935;42.660;23.342;2023-02-13T11:49:02;96427.94;;;6.94;69.30
8049;BME280;20935;42.660;23.342;2023-02-13T11:51:51;96429.78;;;6.82;69.12
8049;BME280;20935;42.660;23.342;2023-02-13T11:54:38;96415.31;;;6.91;69.73
8049;BME280;20935;42.660;23.342;2023-02-13T11:57:29;96409.59;;;6.81;70.67
8049;BME280;20935;42.660;23.342;2023-02-13T12:00:30;96404.81;;;7.07;68.22
8049;BME280;20935;42.660;23.342;2023-02-13T12:03:26;96401.81;;;7.08;62.45
8049;BME280;20935;42.660;23.342;2023-02-13T12:06:15;96398.44;;;7.32;60.75
8049;BME280;20935;42.660;23.342;2023-02-13T12:09:01;96394.53;;;7.54;58.80
8049;BME280;20935;42.660;23.342;2023-02-13T12:11:49;96397.44;;;7.61;58.74
8049;BME280;20935;42.660;23.342;2023-02-13T12:14:39;96391.22;;;7.57;59.39
8049;BME280;20935;42.660;23.342;2023-02-13T12:17:29;96387.22;;;7.99;58.46
8049;BME280;20935;42.660;23.342;2023-02-13T12:20:16;96390.56;;;7.48;57.86
8049;BME280;20935;42.660;23.342;2023-02-13T12:23:06;96385.78;;;7.53;58.19
8049;BME280;20935;42.660;23.342;2023-02-13T12:26:14;96386.13;;;7.64;57.23
8049;BME280;20935;42.660;23.342;2023-02-13T12:29:17;96393.84;;;8.06;56.43
8049;BME280;20935;42.660;23.342;2023-02-13T12:32:17;96376.22;;;7.40;58.40
8049;BME280;20935;42.660;23.342;2023-02-13T12:35:27;96376.09;;;7.97;55.28
8049;BME280;20935;42.660;23.342;2023-02-13T12:38:26;96374.44;;;7.56;56.90
8049;BME280;20935;42.660;23.342;2023-02-13T12:41:19;96363.13;;;7.60;56.78
8049;BME280;20935;42.660;23.342;2023-02-13T12:44:33;96376.66;;;8.03;55.47
8049;BME280;20935;42.660;23.342;2023-02-13T12:47:28;96369.41;;;8.16;54.67
8049;BME280;20935;42.660;23.342;2023-02-13T12:50:28;96361.91;;;8.33;53.55
8049;BME280;20935;42.660;23.342;2023-02-13T12:53:40;96358.13;;;8.34;52.53
8049;BME280;20935;42.660;23.342;2023-02-13T12:56:48;96356.75;;;7.88;53.23
8049;BME280;20935;42.660;23.342;2023-02-13T12:59:49;96351.78;;;7.87;53.48
8049;BME280;20935;42.660;23.342;2023-02-13T13:03:02;96346.34;;;7.83;54.07
8049;BME280;20935;42.660;23.342;2023-02-13T13:06:03;96350.28;;;8.01;53.49
8049;BME280;20935;42.660;23.342;2023-02-13T13:09:08;96343.53;;;8.04;53.00
8049;BME280;20935;42.660;23.342;2023-02-13T13:12:14;96342.28;;;8.01;53.28
8049;BME280;20935;42.660;23.342;2023-02-13T13:15:05;96339.91;;;7.72;53.29
8049;BME280;20935;42.660;23.342;2023-02-13T13:18:06;96332.66;;;7.73;53.89
8049;BME280;20935;42.660;23.342;2023-02-13T13:21:01;96336.63;;;8.03;52.96
8049;BME280;20935;42.660;23.342;2023-02-13T13:23:57;96327.75;;;7.87;53.41
8049;BME280;20935;42.660;23.342;2023-02-13T13:26:46;96318.50;;;7.96;53.65
8049;BME280;20935;42.660;23.342;2023-02-13T13:29:40;96311.84;;;7.90;53.43
8049;BME280;20935;42.660;23.342;2023-02-13T13:32:28;96320.53;;;7.87;53.59
8049;BME280;20935;42.660;23.342;2023-02-13T13:35:19;96316.13;;;7.79;53.66
8049;BME280;20935;42.660;23.342;2023-02-13T13:38:11;96310.59;;;7.60;53.76
8049;BME280;20935;42.660;23.342;2023-02-13T13:41:06;96317.91;;;7.51;54.27
8049;BME280;20935;42.660;23.342;2023-02-13T13:44:20;96310.91;;;7.59;54.32
8049;BME280;20935;42.660;23.342;2023-02-13T13:47:19;96306.69;;;7.45;54.76
8049;BME280;20935;42.660;23.342;2023-02-13T13:50:20;96312.22;;;7.65;54.19
8049;BME280;20935;42.660;23.342;2023-02-13T13:53:09;96307.78;;;7.69;54.46
8049;BME280;20935;42.660;23.342;2023-02-13T13:56:00;96309.25;;;7.42;54.78
8049;BME280;20935;42.660;23.342;2023-02-13T13:58:47;96304.47;;;7.47;54.49
8049;BME280;20935;42.660;23.342;2023-02-13T14:01:37;96302.91;;;7.22;54.84
8049;BME280;20935;42.660;23.342;2023-02-13T14:04:59;96302.91;;;7.46;54.92
8049;BME280;20935;42.660;23.342;2023-02-13T14:07:48;96301.47;;;7.37;54.77
8049;BME280;20935;42.660;23.342;2023-02-13T14:11:23;96298.16;;;7.28;54.88
8049;BME280;20935;42.660;23.342;2023-02-13T14:17:50;96299.94;;;7.24;55.44
8049;BME280;20935;42.660;23.342;2023-02-13T14:20:39;96289.16;;;7.20;55.38
8049;BME280;20935;42.660;23.342;2023-02-13T14:23:33;96278.38;;;7.17;55.97
8049;BME280;20935;42.660;23.342;2023-02-13T14:26:32;96288.28;;;7.16;56.07
8049;BME280;20935;42.660;23.342;2023-02-13T14:29:29;96284.59;;;7.33;55.76
8049;BME280;20935;42.660;23.342;2023-02-13T14:32:21;96281.50;;;7.06;56.46
8049;BME280;20935;42.660;23.342;2023-02-13T14:35:17;96283.59;;;7.13;56.83
8049;BME280;20935;42.660;23.342;2023-02-13T14:38:06;96273.28;;;7.24;56.28
8049;BME280;20935;42.660;23.342;2023-02-13T14:41:03;96280.94;;;7.13;56.61
8049;BME280;20935;42.660;23.342;2023-02-13T14:43:51;96281.69;;;7.01;57.02
8049;BME280;20935;42.660;23.342;2023-02-13T14:46:39;96280.59;;;6.90;57.55
8049;BME280;20935;42.660;23.342;2023-02-13T14:49:28;96277.84;;;7.11;56.72
8049;BME280;20935;42.660;23.342;2023-02-13T14:52:18;96275.47;;;6.85;57.38
8049;BME280;20935;42.660;23.342;2023-02-13T14:55:11;96279.25;;;6.84;57.80
8049;BME280;20935;42.660;23.342;2023-02-13T14:58:03;96273.69;;;6.77;57.44
8049;BME280;20935;42.660;23.342;2023-02-13T15:00:53;96276.59;;;6.84;57.63
8049;BME280;20935;42.660;23.342;2023-02-13T15:03:45;96280.78;;;6.85;57.78
8049;BME280;20935;42.660;23.342;2023-02-13T15:06:34;96278.13;;;6.73;57.78
8049;BME280;20935;42.660;23.342;2023-02-13T15:09:26;96269.22;;;6.69;58.21
8049;BME280;20935;42.660;23.342;2023-02-13T15:12:26;96275.22;;;6.66;58.81
8049;BME280;20935;42.660;23.342;2023-02-13T15:15:28;96270.06;;;6.49;58.57
8049;BME280;20935;42.660;23.342;2023-02-13T15:18:18;96270.56;;;6.30;59.73
8049;BME280;20935;42.660;23.342;2023-02-13T15:21:04;96279.22;;;6.27;59.97
8049;BME280;20935;42.660;23.342;2023-02-13T15:23:52;96280.66;;;6.25;60.48